createdAt,value
2018-11-23T00:00:38.541Z,101404.00
2018-11-23T00:03:07.714Z,101404.00
2018-11-23T00:05:36.912Z,101408.00
2018-11-23T00:08:06.435Z,101407.00
2018-11-23T00:10:35.860Z,101398.00
2018-11-23T00:13:05.708Z,101407.00
2018-11-23T00:15:35.289Z,101403.00
2018-11-23T00:18:07.121Z,101406.00
2018-11-23T00:20:36.610Z,101407.00
2018-11-23T00:23:06.571Z,101409.00
2018-11-23T00:25:36.793Z,101407.00
2018-11-23T00:28:06.544Z,101403.00
2018-11-23T00:30:36.211Z,101402.00
2018-11-23T00:33:05.631Z,101400.00
2018-11-23T00:35:35.368Z,101394.00
2018-11-23T00:38:04.769Z,101408.00
2018-11-23T00:40:34.929Z,101408.00
2018-11-23T00:43:05.034Z,101399.00
2018-11-23T00:45:34.284Z,101395.00
2018-11-23T00:48:04.127Z,101400.00
2018-11-23T00:50:33.604Z,101403.00
2018-11-23T00:53:03.178Z,101397.00
2018-11-23T00:55:32.682Z,101409.00
2018-11-23T00:58:02.597Z,101400.00
2018-11-23T01:00:34.298Z,101404.00
2018-11-23T01:03:05.340Z,101405.00
2018-11-23T01:05:34.622Z,101405.00
2018-11-23T01:08:04.129Z,101396.00
2018-11-23T01:10:33.730Z,101399.00
2018-11-23T01:13:03.025Z,101401.00
2018-11-23T01:15:32.775Z,101403.00
2018-11-23T01:18:02.672Z,101396.00
2018-11-23T01:20:32.033Z,101401.00
2018-11-23T01:23:01.533Z,101397.00
2018-11-23T01:25:31.312Z,101397.00
2018-11-23T01:28:01.156Z,101397.00
2018-11-23T01:30:31.843Z,101387.00
2018-11-23T01:33:01.315Z,101391.00
2018-11-23T01:35:31.382Z,101392.00
2018-11-23T01:38:00.963Z,101387.00
2018-11-23T01:40:31.138Z,101402.00
2018-11-23T01:43:00.924Z,101396.00
2018-11-23T01:45:30.478Z,101391.00
2018-11-23T01:47:59.868Z,101393.00
2018-11-23T01:50:30.331Z,101376.00
2018-11-23T01:53:00.052Z,101396.00
2018-11-23T01:55:29.302Z,101387.00
2018-11-23T01:57:58.923Z,101392.00
2018-11-23T02:00:29.377Z,101383.00
2018-11-23T02:02:58.698Z,101386.00
2018-11-23T02:05:28.104Z,101377.00
2018-11-23T02:07:57.367Z,101381.00
2018-11-23T02:10:26.737Z,101379.00
2018-11-23T02:12:56.357Z,101388.00
2018-11-23T02:15:26.066Z,101380.00
2018-11-23T02:17:55.923Z,101381.00
2018-11-23T02:20:25.577Z,101376.00
2018-11-23T02:22:54.965Z,101371.00
2018-11-23T02:25:24.269Z,101374.00
2018-11-23T02:27:53.643Z,101366.00
2018-11-23T02:30:24.367Z,101352.00
2018-11-23T02:32:53.982Z,101367.00
2018-11-23T02:35:23.643Z,101359.00
2018-11-23T02:37:53.455Z,101365.00
2018-11-23T02:40:23.230Z,101352.00
2018-11-23T02:42:52.559Z,101369.00
2018-11-23T02:45:23.428Z,101362.00
2018-11-23T02:47:52.931Z,101366.00
2018-11-23T02:50:22.265Z,101358.00
2018-11-23T02:52:51.561Z,101362.00
2018-11-23T02:55:21.201Z,101359.00
2018-11-23T02:57:50.580Z,101352.00
2018-11-23T03:00:21.611Z,101356.00
2018-11-23T03:02:51.414Z,101371.00
2018-11-23T03:05:22.538Z,101368.00
2018-11-23T03:07:51.981Z,101357.00
2018-11-23T03:10:21.744Z,101364.00
2018-11-23T03:12:52.122Z,101361.00
2018-11-23T03:15:22.080Z,101357.00
2018-11-23T03:17:51.884Z,101361.00
2018-11-23T03:20:22.432Z,101357.00
2018-11-23T03:22:52.138Z,101347.00
2018-11-23T03:25:21.917Z,101355.00
2018-11-23T03:27:51.427Z,101348.00
2018-11-23T03:30:22.578Z,101340.00
2018-11-23T03:32:52.736Z,101350.00
2018-11-23T03:35:22.667Z,101355.00
2018-11-23T03:37:52.448Z,101344.00
2018-11-23T03:40:22.570Z,101326.00
2018-11-23T03:42:52.344Z,101334.00
2018-11-23T03:45:22.102Z,101329.00
2018-11-23T03:47:51.946Z,101332.00
2018-11-23T03:50:21.996Z,101332.00
2018-11-23T03:52:51.971Z,101334.00
2018-11-23T03:55:21.975Z,101323.00
2018-11-23T03:57:52.490Z,101325.00
2018-11-23T04:00:23.592Z,101330.00
2018-11-23T04:02:53.424Z,101334.00
2018-11-23T04:05:23.070Z,101334.00
2018-11-23T04:07:52.335Z,101339.00
2018-11-23T04:10:21.637Z,101337.00
2018-11-23T04:12:51.471Z,101327.00
2018-11-23T04:15:21.302Z,101331.00
2018-11-23T04:17:51.204Z,101331.00
2018-11-23T04:20:20.798Z,101324.00
2018-11-23T04:22:51.021Z,101317.00
2018-11-23T04:25:20.707Z,101310.00
2018-11-23T04:27:50.073Z,101314.00
2018-11-23T04:30:19.555Z,101318.00
2018-11-23T04:32:49.383Z,101312.00
2018-11-23T04:35:19.684Z,101315.00
2018-11-23T04:37:49.493Z,101311.00
2018-11-23T04:40:19.590Z,101308.00
2018-11-23T04:42:48.905Z,101310.00
2018-11-23T04:45:18.573Z,101306.00
2018-11-23T04:47:48.294Z,101302.00
2018-11-23T04:50:18.308Z,101301.00
2018-11-23T04:52:47.886Z,101311.00
2018-11-23T04:55:17.096Z,101312.00
2018-11-23T04:57:47.280Z,101312.00
2018-11-23T05:00:17.136Z,101305.00
2018-11-23T05:02:48.117Z,101307.00
2018-11-23T05:05:17.890Z,101299.00
2018-11-23T05:07:47.814Z,101307.00
2018-11-23T05:10:17.846Z,101305.00
2018-11-23T05:12:47.216Z,101298.00
2018-11-23T05:15:17.845Z,101302.00
2018-11-23T05:17:47.598Z,101295.00
2018-11-23T05:20:17.565Z,101302.00
2018-11-23T05:22:47.116Z,101302.00
2018-11-23T05:25:17.870Z,101292.00
2018-11-23T05:27:47.071Z,101301.00
2018-11-23T05:30:19.695Z,101288.00
2018-11-23T05:32:48.937Z,101294.00
2018-11-23T05:35:18.913Z,101299.00
2018-11-23T05:37:48.187Z,101305.00
2018-11-23T05:40:19.668Z,101301.00
2018-11-23T05:42:50.005Z,101307.00
2018-11-23T05:45:20.690Z,101307.00
2018-11-23T05:47:50.376Z,101308.00
2018-11-23T05:50:23.286Z,101323.00
2018-11-23T05:52:53.190Z,101315.00
2018-11-23T05:55:22.708Z,101308.00
2018-11-23T05:57:52.451Z,101319.00
2018-11-23T06:00:25.812Z,101315.00
2018-11-23T06:02:55.458Z,101314.00
2018-11-23T06:05:24.614Z,101311.00
2018-11-23T06:07:53.768Z,101311.00
2018-11-23T06:10:23.288Z,101302.00
2018-11-23T06:12:52.410Z,101299.00
2018-11-23T06:15:22.894Z,101307.00
2018-11-23T06:17:52.110Z,101293.00
2018-11-23T06:20:24.037Z,101306.00
2018-11-23T06:22:53.713Z,101302.00
2018-11-23T06:25:31.027Z,101306.00
2018-11-23T06:28:00.087Z,101307.00
2018-11-23T06:30:29.433Z,101311.00
2018-11-23T06:33:09.616Z,101319.00
2018-11-23T06:35:39.038Z,101315.00
2018-11-23T06:38:08.174Z,101321.00
2018-11-23T06:40:37.442Z,101309.00
2018-11-23T06:43:06.762Z,101322.00
2018-11-23T06:45:37.758Z,101320.00
2018-11-23T06:48:07.604Z,101323.00
2018-11-23T06:50:36.968Z,101317.00
2018-11-23T06:53:06.741Z,101313.00
2018-11-23T06:55:36.114Z,101323.00
2018-11-23T06:58:05.996Z,101321.00
2018-11-23T07:00:36.162Z,101317.00
2018-11-23T07:03:06.424Z,101321.00
2018-11-23T07:05:35.826Z,101324.00
2018-11-23T07:08:05.994Z,101327.00
2018-11-23T07:10:35.508Z,101327.00
2018-11-23T07:13:05.494Z,101324.00
2018-11-23T07:15:35.063Z,101330.00
2018-11-23T07:18:05.408Z,101325.00
2018-11-23T07:20:35.072Z,101325.00
2018-11-23T07:23:05.190Z,101333.00
2018-11-23T07:25:34.942Z,101324.00
2018-11-23T07:28:04.771Z,101324.00
2018-11-23T07:30:34.396Z,101330.00
2018-11-23T07:33:04.404Z,101339.00
2018-11-23T07:35:34.390Z,101321.00
2018-11-23T07:38:04.189Z,101329.00
2018-11-23T07:40:46.207Z,101326.00
2018-11-23T07:43:15.824Z,101333.00
2018-11-23T07:45:45.798Z,101333.00
2018-11-23T07:48:15.502Z,101332.00
2018-11-23T07:50:45.216Z,101322.00
2018-11-23T07:53:15.203Z,101318.00
2018-11-23T07:55:45.732Z,101320.00
2018-11-23T07:58:15.390Z,101326.00
2018-11-23T08:00:46.334Z,101328.00
2018-11-23T08:03:17.660Z,101324.00
2018-11-23T08:05:48.333Z,101324.00
2018-11-23T08:08:17.898Z,101319.00
2018-11-23T08:10:47.041Z,101319.00
2018-11-23T08:13:17.453Z,101330.00
2018-11-23T08:15:47.368Z,101329.00
2018-11-23T08:18:17.570Z,101317.00
2018-11-23T08:20:48.688Z,101326.00
2018-11-23T08:23:18.525Z,101316.00
2018-11-23T08:25:48.888Z,101324.00
2018-11-23T08:28:18.826Z,101323.00
2018-11-23T08:30:49.531Z,101320.00
2018-11-23T08:33:20.246Z,101317.00
2018-11-23T08:35:50.210Z,101320.00
2018-11-23T08:38:20.262Z,101321.00
2018-11-23T08:40:51.063Z,101320.00
2018-11-23T08:43:21.128Z,101321.00
2018-11-23T08:45:51.235Z,101330.00
2018-11-23T08:48:20.940Z,101321.00
2018-11-23T08:50:51.360Z,101322.00
2018-11-23T08:53:27.870Z,101319.00
2018-11-23T08:55:52.678Z,101324.00
2018-11-23T08:58:23.113Z,101321.00
2018-11-23T09:00:52.686Z,101320.00
2018-11-23T09:03:22.424Z,101322.00
2018-11-23T09:05:52.584Z,101324.00
2018-11-23T09:08:22.224Z,101322.00
2018-11-23T09:10:52.552Z,101326.00
2018-11-23T09:13:22.625Z,101324.00
2018-11-23T09:15:52.586Z,101323.00
2018-11-23T09:18:22.319Z,101323.00
2018-11-23T09:20:52.491Z,101320.00
2018-11-23T09:23:23.637Z,101325.00
2018-11-23T09:25:54.248Z,101321.00
2018-11-23T09:28:23.844Z,101318.00
2018-11-23T09:30:53.749Z,101312.00
2018-11-23T09:33:23.206Z,101309.00
2018-11-23T09:35:52.670Z,101323.00
2018-11-23T09:38:22.529Z,101320.00
2018-11-23T09:40:52.432Z,101323.00
2018-11-23T09:43:22.469Z,101322.00
2018-11-23T09:45:53.093Z,101323.00
2018-11-23T09:48:22.727Z,101321.00
2018-11-23T09:50:52.960Z,101315.00
2018-11-23T09:53:22.651Z,101314.00
2018-11-23T09:55:52.298Z,101300.00
2018-11-23T09:58:22.113Z,101305.00
2018-11-23T10:00:53.313Z,101304.00
2018-11-23T10:03:23.793Z,101295.00
2018-11-23T10:05:53.389Z,101299.00
2018-11-23T10:08:23.598Z,101293.00
2018-11-23T10:10:53.769Z,101285.00
2018-11-23T10:13:23.457Z,101293.00
2018-11-23T10:15:52.889Z,101289.00
2018-11-23T10:18:23.041Z,101283.00
2018-11-23T10:20:53.271Z,101281.00
2018-11-23T10:23:22.819Z,101281.00
2018-11-23T10:25:53.185Z,101267.00
2018-11-23T10:28:22.721Z,101270.00
2018-11-23T10:30:52.535Z,101271.00
2018-11-23T10:33:22.866Z,101277.00
2018-11-23T10:35:52.259Z,101272.00
2018-11-23T10:38:22.007Z,101270.00
2018-11-23T10:40:51.703Z,101267.00
2018-11-23T10:43:21.267Z,101262.00
2018-11-23T10:45:51.135Z,101267.00
2018-11-23T10:48:20.575Z,101254.00
2018-11-23T10:50:50.171Z,101238.00
2018-11-23T10:53:20.224Z,101231.00
2018-11-23T10:55:50.129Z,101238.00
2018-11-23T10:58:19.981Z,101220.00
2018-11-23T11:00:50.063Z,101228.00
2018-11-23T11:03:34.263Z,101225.00
2018-11-23T11:06:11.731Z,101231.00
2018-11-23T11:08:42.361Z,101227.00
2018-11-23T11:11:13.840Z,101232.00
2018-11-23T11:13:42.183Z,101233.00
2018-11-23T11:16:12.533Z,101230.00
2018-11-23T11:18:43.302Z,101224.00
2018-11-23T11:21:12.705Z,101228.00
2018-11-23T11:23:42.410Z,101226.00
2018-11-23T11:26:12.451Z,101222.00
2018-11-23T11:28:42.513Z,101226.00
2018-11-23T11:31:12.527Z,101224.00
2018-11-23T11:33:43.111Z,101224.00
2018-11-23T11:36:12.910Z,101217.00
2018-11-23T11:38:42.614Z,101211.00
2018-11-23T11:41:12.387Z,101213.00
2018-11-23T11:43:42.514Z,101206.00
2018-11-23T11:46:13.353Z,101203.00
2018-11-23T11:48:42.769Z,101206.00
2018-11-23T11:51:12.551Z,101204.00
2018-11-23T11:53:42.395Z,101194.00
2018-11-23T11:56:12.677Z,101185.00
2018-11-23T11:58:43.838Z,101190.00
2018-11-23T12:01:13.268Z,101183.00
2018-11-23T12:03:43.109Z,101184.00
2018-11-23T12:06:12.749Z,101177.00
2018-11-23T12:08:42.679Z,101182.00
2018-11-23T12:11:12.583Z,101174.00
2018-11-23T12:13:42.407Z,101163.00
2018-11-23T12:16:12.583Z,101165.00
2018-11-23T12:18:42.410Z,101163.00
2018-11-23T12:21:12.397Z,101164.00
2018-11-23T12:23:42.356Z,101158.00
2018-11-23T12:26:12.444Z,101166.00
2018-11-23T12:28:42.201Z,101160.00
2018-11-23T12:31:13.085Z,101158.00
2018-11-23T12:33:43.011Z,101144.00
2018-11-23T12:36:13.815Z,101150.00
2018-11-23T12:38:43.903Z,101161.00
2018-11-23T12:41:13.852Z,101163.00
2018-11-23T12:43:43.547Z,101152.00
2018-11-23T12:46:13.850Z,101148.00
2018-11-23T12:48:44.006Z,101159.00
2018-11-23T12:51:14.535Z,101153.00
2018-11-23T12:53:44.692Z,101137.00
2018-11-23T12:56:14.652Z,101137.00
2018-11-23T12:58:45.130Z,101139.00
2018-11-23T13:01:15.170Z,101143.00
2018-11-23T13:03:44.916Z,101138.00
2018-11-23T13:06:16.832Z,101153.00
2018-11-23T13:08:47.108Z,101136.00
2018-11-23T13:11:17.939Z,101138.00
2018-11-23T13:13:48.980Z,101136.00
2018-11-23T13:16:19.132Z,101130.00
2018-11-23T13:18:49.840Z,101144.00
2018-11-23T13:21:19.805Z,101127.00
2018-11-23T13:23:50.291Z,101128.00
2018-11-23T13:26:20.098Z,101125.00
2018-11-23T13:28:51.364Z,101124.00
2018-11-23T13:31:20.906Z,101127.00
2018-11-23T13:33:50.372Z,101115.00
2018-11-23T13:36:20.531Z,101116.00
2018-11-23T13:38:51.370Z,101119.00
2018-11-23T13:41:21.416Z,101125.00
2018-11-23T13:43:51.999Z,101123.00
2018-11-23T13:46:22.099Z,101103.00
2018-11-23T13:48:53.325Z,101113.00
2018-11-23T13:51:22.755Z,101124.00
2018-11-23T13:53:52.477Z,101115.00
2018-11-23T13:56:23.292Z,101116.00
2018-11-23T13:58:53.750Z,101108.00
2018-11-23T14:01:23.746Z,101106.00
2018-11-23T14:03:54.473Z,101114.00
2018-11-23T14:06:24.325Z,101113.00
2018-11-23T14:08:54.776Z,101108.00
2018-11-23T14:11:25.040Z,101109.00
2018-11-23T14:13:55.281Z,101102.00
2018-11-23T14:16:25.516Z,101109.00
2018-11-23T14:18:55.764Z,101095.00
2018-11-23T14:21:25.564Z,101090.00
2018-11-23T14:23:55.219Z,101102.00
2018-11-23T14:26:24.950Z,101091.00
2018-11-23T14:28:55.294Z,101090.00
2018-11-23T14:31:25.348Z,101103.00
2018-11-23T14:33:55.079Z,101092.00
2018-11-23T14:36:24.913Z,101082.00
2018-11-23T14:38:54.766Z,101094.00
2018-11-23T14:41:25.745Z,101081.00
2018-11-23T14:43:55.562Z,101081.00
2018-11-23T14:46:26.406Z,101073.00
2018-11-23T14:48:56.525Z,101080.00
2018-11-23T14:51:26.862Z,101075.00
2018-11-23T14:53:56.716Z,101066.00
2018-11-23T14:56:30.318Z,101072.00
2018-11-23T14:58:59.956Z,101064.00
2018-11-23T15:01:29.644Z,101072.00
2018-11-23T15:03:59.936Z,101077.00
2018-11-23T15:06:30.053Z,101081.00
2018-11-23T15:09:00.913Z,101080.00
2018-11-23T15:11:30.413Z,101075.00
2018-11-23T15:14:00.595Z,101078.00
2018-11-23T15:16:30.285Z,101078.00
2018-11-23T15:18:59.591Z,101077.00
2018-11-23T15:21:29.019Z,101095.00
2018-11-23T15:24:00.845Z,101079.00
2018-11-23T15:26:27.696Z,101076.00
2018-11-23T15:28:56.976Z,101081.00
2018-11-23T15:31:26.455Z,101067.00
2018-11-23T15:33:55.953Z,101057.00
2018-11-23T15:36:25.835Z,101061.00
2018-11-23T15:38:54.959Z,101065.00
2018-11-23T15:41:24.110Z,101057.00
2018-11-23T15:43:53.228Z,101073.00
2018-11-23T15:46:22.892Z,101072.00
2018-11-23T15:48:52.042Z,101065.00
2018-11-23T15:51:21.135Z,101075.00
2018-11-23T15:53:50.356Z,101064.00
2018-11-23T15:56:20.264Z,101049.00
2018-11-23T15:58:49.877Z,101078.00
2018-11-23T16:01:19.397Z,101067.00
2018-11-23T16:03:48.939Z,101061.00
2018-11-23T16:06:18.304Z,101063.00
2018-11-23T16:08:47.595Z,101067.00
2018-11-23T16:11:17.254Z,101055.00
2018-11-23T16:13:46.893Z,101065.00
2018-11-23T16:16:16.178Z,101074.00
2018-11-23T16:18:45.480Z,101074.00
2018-11-23T16:21:14.865Z,101069.00
2018-11-23T16:23:44.205Z,101064.00
2018-11-23T16:26:13.424Z,101064.00
2018-11-23T16:28:42.709Z,101066.00
2018-11-23T16:31:13.273Z,101060.00
2018-11-23T16:33:43.180Z,101067.00
2018-11-23T16:36:12.733Z,101051.00
2018-11-23T16:38:42.362Z,101071.00
2018-11-23T16:41:11.615Z,101054.00
2018-11-23T16:43:41.174Z,101065.00
2018-11-23T16:46:10.912Z,101067.00
2018-11-23T16:48:40.095Z,101064.00
2018-11-23T16:51:09.509Z,101060.00
2018-11-23T16:53:38.694Z,101061.00
2018-11-23T16:56:07.935Z,101055.00
2018-11-23T16:58:37.160Z,101051.00
2018-11-23T17:01:06.551Z,101066.00
2018-11-23T17:03:35.858Z,101065.00
2018-11-23T17:06:05.412Z,101066.00
2018-11-23T17:08:39.630Z,101070.00
2018-11-23T17:11:04.507Z,101066.00
2018-11-23T17:13:34.430Z,101072.00
2018-11-23T17:16:03.887Z,101071.00
2018-11-23T17:18:33.875Z,101071.00
2018-11-23T17:21:03.798Z,101073.00
2018-11-23T17:23:33.877Z,101062.00
2018-11-23T17:26:03.273Z,101056.00
2018-11-23T17:28:32.971Z,101049.00
2018-11-23T17:31:09.017Z,101049.00
2018-11-23T17:33:38.605Z,101026.00
2018-11-23T17:36:08.533Z,101040.00
2018-11-23T17:38:46.825Z,101038.00
2018-11-23T17:41:07.617Z,101030.00
2018-11-23T17:43:37.273Z,101032.00
2018-11-23T17:46:06.888Z,101032.00
2018-11-23T17:48:36.442Z,101032.00
2018-11-23T17:51:06.405Z,101041.00
2018-11-23T17:53:35.797Z,101046.00
2018-11-23T17:56:05.701Z,101046.00
2018-11-23T17:58:35.111Z,101035.00
2018-11-23T18:01:06.345Z,101035.00
2018-11-23T18:03:35.473Z,101027.00
2018-11-23T18:06:04.666Z,101030.00
2018-11-23T18:08:38.620Z,101035.00
2018-11-23T18:11:04.117Z,101036.00
2018-11-23T18:13:33.369Z,101037.00
2018-11-23T18:16:02.808Z,101029.00
2018-11-23T18:18:32.568Z,101023.00
2018-11-23T18:21:02.050Z,101020.00
2018-11-23T18:23:31.307Z,101014.00
2018-11-23T18:26:00.799Z,101002.00
2018-11-23T18:28:30.329Z,101004.00
2018-11-23T18:30:59.852Z,101008.00
2018-11-23T18:33:29.545Z,100990.00
2018-11-23T18:35:59.238Z,101011.00
2018-11-23T18:38:28.943Z,101010.00
2018-11-23T18:40:59.383Z,101011.00
2018-11-23T18:43:29.546Z,101004.00
2018-11-23T18:45:59.101Z,101010.00
2018-11-23T18:48:28.937Z,100999.00
2018-11-23T18:50:58.501Z,101000.00
2018-11-23T18:53:27.727Z,100996.00
2018-11-23T18:55:57.675Z,100996.00
2018-11-23T18:58:27.121Z,100997.00
2018-11-23T19:00:56.880Z,100994.00
2018-11-23T19:03:26.195Z,100992.00
2018-11-23T19:05:56.305Z,100980.00
2018-11-23T19:08:26.913Z,100985.00
2018-11-23T19:10:56.216Z,100990.00
2018-11-23T19:13:25.545Z,100985.00
2018-11-23T19:15:55.284Z,100989.00
2018-11-23T19:18:25.279Z,100984.00
2018-11-23T19:20:54.907Z,100981.00
2018-11-23T19:23:25.414Z,100983.00
2018-11-23T19:25:54.864Z,100972.00
2018-11-23T19:28:24.379Z,100978.00
2018-11-23T19:30:53.824Z,100980.00
2018-11-23T19:33:23.394Z,100965.00
2018-11-23T19:35:56.242Z,100973.00
2018-11-23T19:38:27.546Z,100973.00
2018-11-23T19:40:56.971Z,100976.00
2018-11-23T19:43:27.133Z,100962.00
2018-11-23T19:45:56.930Z,100967.00
2018-11-23T19:48:26.732Z,100975.00
2018-11-23T19:50:56.266Z,100956.00
2018-11-23T19:53:25.953Z,100944.00
2018-11-23T19:55:56.116Z,100953.00
2018-11-23T19:58:25.757Z,100933.00
2018-11-23T20:00:55.640Z,100927.00
2018-11-23T20:03:25.106Z,100927.00
2018-11-23T20:05:55.194Z,100932.00
2018-11-23T20:08:25.100Z,100914.00
2018-11-23T20:10:54.493Z,100909.00
2018-11-23T20:13:23.809Z,100919.00
2018-11-23T20:15:53.202Z,100909.00
2018-11-23T20:18:22.727Z,100913.00
2018-11-23T20:20:54.168Z,100912.00
2018-11-23T20:23:24.758Z,100916.00
2018-11-23T20:25:54.175Z,100910.00
2018-11-23T20:28:23.800Z,100908.00
2018-11-23T20:30:53.108Z,100884.00
2018-11-23T20:33:22.852Z,100895.00
2018-11-23T20:35:52.516Z,100896.00
2018-11-23T20:38:22.774Z,100891.00
2018-11-23T20:40:52.380Z,100888.00
2018-11-23T20:43:22.222Z,100888.00
2018-11-23T20:45:51.987Z,100885.00
2018-11-23T20:48:21.878Z,100879.00
2018-11-23T20:50:51.298Z,100871.00
2018-11-23T20:53:20.602Z,100887.00
2018-11-23T20:55:49.981Z,100884.00
2018-11-23T20:58:19.208Z,100884.00
2018-11-23T21:00:49.190Z,100882.00
2018-11-23T21:03:19.266Z,100884.00
2018-11-23T21:05:49.699Z,100888.00
2018-11-23T21:08:19.285Z,100869.00
2018-11-23T21:10:48.658Z,100862.00
2018-11-23T21:13:17.898Z,100862.00
2018-11-23T21:15:47.416Z,100868.00
2018-11-23T21:18:17.100Z,100860.00
2018-11-23T21:20:46.464Z,100872.00
2018-11-23T21:23:16.105Z,100870.00
2018-11-23T21:25:45.688Z,100862.00
2018-11-23T21:28:15.088Z,100865.00
2018-11-23T21:30:44.946Z,100848.00
2018-11-23T21:33:14.176Z,100866.00
2018-11-23T21:35:43.813Z,100868.00
2018-11-23T21:38:13.618Z,100865.00
2018-11-23T21:40:44.496Z,100862.00
2018-11-23T21:43:12.781Z,100863.00
2018-11-23T21:45:43.289Z,100856.00
2018-11-23T21:48:15.324Z,100857.00
2018-11-23T21:50:48.680Z,100844.00
2018-11-23T21:53:18.791Z,100854.00
2018-11-23T21:55:48.157Z,100843.00
2018-11-23T21:58:17.892Z,100853.00
2018-11-23T22:00:47.855Z,100848.00
2018-11-23T22:03:17.598Z,100849.00
2018-11-23T22:05:47.261Z,100849.00
2018-11-23T22:08:16.961Z,100831.00
2018-11-23T22:10:47.139Z,100833.00
2018-11-23T22:13:17.576Z,100831.00
2018-11-23T22:15:49.183Z,100821.00
2018-11-23T22:18:40.887Z,100824.00
2018-11-23T22:21:10.783Z,100817.00
2018-11-23T22:23:40.236Z,100811.00
2018-11-23T22:26:09.648Z,100819.00
2018-11-23T22:28:39.272Z,100822.00
2018-11-23T22:31:08.614Z,100816.00
2018-11-23T22:33:38.327Z,100822.00
2018-11-23T22:36:07.456Z,100817.00
2018-11-23T22:38:37.470Z,100815.00
2018-11-23T22:41:06.810Z,100823.00
2018-11-23T22:43:36.680Z,100823.00
2018-11-23T22:46:07.090Z,100818.00
2018-11-23T22:48:37.083Z,100819.00
2018-11-23T22:51:07.289Z,100820.00
2018-11-23T22:53:36.812Z,100819.00
2018-11-23T22:56:06.550Z,100805.00
2018-11-23T22:58:36.144Z,100823.00
2018-11-23T23:01:06.065Z,100815.00
2018-11-23T23:03:35.830Z,100817.00
2018-11-23T23:06:05.647Z,100816.00
2018-11-23T23:08:34.932Z,100810.00
2018-11-23T23:11:05.185Z,100805.00
2018-11-23T23:13:35.662Z,100806.00
2018-11-23T23:16:05.648Z,100795.00
2018-11-23T23:18:35.639Z,100793.00
2018-11-23T23:21:05.305Z,100791.00
2018-11-23T23:23:35.255Z,100778.00
2018-11-23T23:26:05.229Z,100777.00
2018-11-23T23:28:34.612Z,100782.00
2018-11-23T23:31:03.999Z,100779.00
2018-11-23T23:33:34.851Z,100779.00
2018-11-23T23:36:04.539Z,100770.00
2018-11-23T23:38:34.039Z,100773.00
2018-11-23T23:41:03.802Z,100769.00
2018-11-23T23:43:33.829Z,100762.00
2018-11-23T23:46:03.931Z,100761.00
2018-11-23T23:48:34.013Z,100754.00
2018-11-23T23:51:04.007Z,100746.00
2018-11-23T23:53:33.570Z,100746.00
2018-11-23T23:56:03.079Z,100749.00
2018-11-23T23:58:32.795Z,100747.00
